TimeCDT,TemperatureF,Dew PointF,Humidity,Sea Level PressureIn,VisibilityMPH,Wind Direction,Wind SpeedMPH,Gust SpeedMPH,PrecipitationIn,Events,Conditions,WindDirDegrees,DateUTC
12:15 AM,52.7,50.2,91,29.95,10.0,Calm,Calm,-,N/A,,Scattered Clouds,0,2013-11-02 05:15:00
12:35 AM,54.0,51.8,92,29.95,10.0,Calm,Calm,-,N/A,,Scattered Clouds,0,2013-11-02 05:35:00
12:55 AM,54.5,51.8,91,29.95,10.0,Calm,Calm,-,N/A,,Scattered Clouds,0,2013-11-02 05:55:00
1:15 AM,54.9,52.2,91,29.95,10.0,Calm,Calm,-,N/A,,Scattered Clouds,0,2013-11-02 06:15:00
1:35 AM,54.9,52.2,91,29.95,10.0,Calm,Calm,-,N/A,,Clear,0,2013-11-02 06:35:00
1:55 AM,55.9,52.3,88,29.96,10.0,Calm,Calm,-,N/A,,Clear,0,2013-11-02 06:55:00
2:15 AM,58.1,53.1,83,29.97,10.0,Calm,Calm,-,N/A,,Clear,0,2013-11-02 07:15:00
2:35 AM,58.3,52.7,82,29.97,10.0,Calm,Calm,-,N/A,,Scattered Clouds,0,2013-11-02 07:35:00
2:55 AM,58.1,51.6,79,29.97,10.0,WNW,3.5,-,N/A,,Mostly Cloudy,300,2013-11-02 07:55:00
3:15 AM,58.6,50.2,73,29.98,10.0,Calm,Calm,-,N/A,,Scattered Clouds,0,2013-11-02 08:15:00
3:35 AM,59.0,50.0,72,29.98,10.0,Calm,Calm,-,N/A,,Clear,0,2013-11-02 08:35:00
3:55 AM,59.0,49.8,72,29.99,10.0,NW,4.6,-,N/A,,Scattered Clouds,310,2013-11-02 08:55:00
4:15 AM,59.0,49.5,71,29.99,10.0,NNW,8.1,-,N/A,,Scattered Clouds,330,2013-11-02 09:15:00
4:35 AM,58.5,49.1,71,30.01,10.0,NNW,3.5,-,N/A,,Scattered Clouds,330,2013-11-02 09:35:00
4:55 AM,58.5,49.1,71,30.02,10.0,NNW,5.8,-,N/A,,Mostly Cloudy,330,2013-11-02 09:55:00
5:15 AM,57.2,48.7,73,30.02,10.0,Calm,Calm,-,N/A,,Scattered Clouds,0,2013-11-02 10:15:00
5:35 AM,55.8,48.9,78,30.03,10.0,Calm,Calm,-,N/A,,Scattered Clouds,0,2013-11-02 10:35:00
5:55 AM,55.4,48.6,78,30.04,10.0,Calm,Calm,-,N/A,,Scattered Clouds,0,2013-11-02 10:55:00
6:15 AM,55.0,48.4,78,30.06,10.0,Calm,Calm,-,N/A,,Clear,0,2013-11-02 11:15:00
6:35 AM,54.3,48.2,80,30.07,10.0,Calm,Calm,-,N/A,,Clear,0,2013-11-02 11:35:00
6:55 AM,54.1,47.5,78,30.07,10.0,Calm,Calm,-,N/A,,Clear,0,2013-11-02 11:55:00
7:15 AM,53.1,47.3,81,30.07,10.0,Calm,Calm,-,N/A,,Clear,0,2013-11-02 12:15:00
7:35 AM,51.1,47.1,86,30.08,10.0,Calm,Calm,-,N/A,,Clear,0,2013-11-02 12:35:00
7:55 AM,51.8,47.7,86,30.09,10.0,Calm,Calm,-,N/A,,Clear,0,2013-11-02 12:55:00
8:15 AM,54.0,48.2,81,30.09,10.0,Calm,Calm,-,N/A,,Clear,0,2013-11-02 13:15:00
8:35 AM,55.8,48.0,75,30.10,10.0,Calm,Calm,-,N/A,,Clear,0,2013-11-02 13:35:00
8:55 AM,57.6,47.7,70,30.11,10.0,Calm,Calm,-,N/A,,Clear,0,2013-11-02 13:55:00
9:15 AM,59.4,47.7,65,30.12,10.0,Calm,Calm,-,N/A,,Clear,0,2013-11-02 14:15:00
9:35 AM,61.0,47.1,60,30.12,10.0,Calm,Calm,-,N/A,,Clear,0,2013-11-02 14:35:00
9:55 AM,62.8,47.5,57,30.13,10.0,Calm,Calm,-,N/A,,Clear,0,2013-11-02 14:55:00
10:15 AM,63.9,46.4,53,30.14,10.0,NW,9.2,-,N/A,,Clear,320,2013-11-02 15:15:00
10:35 AM,65.1,45.7,49,30.15,10.0,Calm,Calm,-,N/A,,Clear,0,2013-11-02 15:35:00
10:55 AM,66.4,43.9,44,30.15,10.0,NW,10.4,17.3,N/A,,Clear,310,2013-11-02 15:55:00
12:15 PM,67.5,39.4,36,30.15,10.0,NNW,9.2,-,N/A,,Clear,340,2013-11-02 17:15:00
12:35 PM,68.7,40.3,35,30.15,10.0,NW,10.4,16.1,N/A,,Clear,320,2013-11-02 17:35:00
12:55 PM,69.3,39.9,34,30.14,10.0,NW,11.5,16.1,N/A,,Clear,310,2013-11-02 17:55:00
1:15 PM,68.5,40.6,36,30.13,10.0,North,6.9,-,N/A,,Clear,350,2013-11-02 18:15:00
1:35 PM,68.5,39.9,35,30.13,10.0,NW,11.5,16.1,N/A,,Clear,310,2013-11-02 18:35:00
1:55 PM,68.7,38.1,33,30.12,10.0,NNW,4.6,16.1,N/A,,Clear,340,2013-11-02 18:55:00
2:15 PM,70.2,40.1,34,30.12,10.0,NW,9.2,19.6,N/A,,Clear,320,2013-11-02 19:15:00
2:35 PM,68.9,38.8,33,30.12,10.0,North,4.6,-,N/A,,Clear,10,2013-11-02 19:35:00
2:55 PM,69.3,38.5,32,30.11,10.0,NNW,6.9,-,N/A,,Clear,330,2013-11-02 19:55:00
3:15 PM,69.1,38.1,32,30.10,10.0,NW,15.0,21.9,N/A,,Clear,320,2013-11-02 20:15:00
3:35 PM,68.7,38.3,33,30.11,10.0,NNW,9.2,16.1,N/A,,Clear,330,2013-11-02 20:35:00
3:55 PM,68.0,37.0,32,30.11,10.0,NW,9.2,-,N/A,,Clear,320,2013-11-02 20:55:00
4:15 PM,67.3,37.6,34,30.11,10.0,Calm,Calm,-,N/A,,Clear,0,2013-11-02 21:15:00
4:35 PM,67.3,38.5,35,30.11,10.0,NNW,3.5,-,N/A,,Clear,340,2013-11-02 21:35:00
4:55 PM,66.9,39.7,37,30.12,10.0,North,4.6,-,N/A,,Clear,350,2013-11-02 21:55:00
5:15 PM,66.2,41.2,40,30.12,10.0,NNW,5.8,-,N/A,,Clear,330,2013-11-02 22:15:00
5:35 PM,64.8,40.3,41,30.13,10.0,Calm,Calm,-,N/A,,Clear,0,2013-11-02 22:35:00
5:55 PM,63.3,41.2,44,30.14,10.0,Calm,Calm,-,N/A,,Clear,0,2013-11-02 22:55:00
6:15 PM,60.1,44.2,56,30.15,10.0,Calm,Calm,-,N/A,,Scattered Clouds,0,2013-11-02 23:15:00
6:35 PM,55.8,45.9,69,30.16,10.0,Calm,Calm,-,N/A,,Scattered Clouds,0,2013-11-02 23:35:00
6:55 PM,54.9,46.8,74,30.16,10.0,Calm,Calm,-,N/A,,Scattered Clouds,0,2013-11-02 23:55:00
7:15 PM,53.6,46.9,78,30.17,10.0,Calm,Calm,-,N/A,,Clear,0,2013-11-03 00:15:00
7:35 PM,52.7,46.6,80,30.18,10.0,Calm,Calm,-,N/A,,Clear,0,2013-11-03 00:35:00
7:55 PM,51.4,46.4,83,30.19,10.0,Calm,Calm,-,N/A,,Clear,0,2013-11-03 00:55:00
8:15 PM,50.7,45.7,83,30.20,10.0,Calm,Calm,-,N/A,,Clear,0,2013-11-03 01:15:00
8:35 PM,50.2,45.5,84,30.20,10.0,Calm,Calm,-,N/A,,Clear,0,2013-11-03 01:35:00
8:55 PM,49.3,45.0,85,30.21,10.0,Calm,Calm,-,N/A,,Clear,0,2013-11-03 01:55:00
9:15 PM,48.2,44.6,87,30.21,10.0,Calm,Calm,-,N/A,,Clear,0,2013-11-03 02:15:00
9:35 PM,48.2,44.8,88,30.22,10.0,Calm,Calm,-,N/A,,Clear,0,2013-11-03 02:35:00
9:55 PM,47.8,44.6,89,30.22,10.0,Calm,Calm,-,N/A,,Clear,0,2013-11-03 02:55:00
10:15 PM,46.9,44.4,91,30.22,10.0,Calm,Calm,-,N/A,,Clear,0,2013-11-03 03:15:00
10:35 PM,46.4,43.9,91,30.23,10.0,Calm,Calm,-,N/A,,Clear,0,2013-11-03 03:35:00
10:55 PM,45.9,43.5,92,30.23,10.0,Calm,Calm,-,N/A,,Clear,0,2013-11-03 03:55:00
11:15 PM,45.5,43.0,91,30.24,10.0,Calm,Calm,-,N/A,,Clear,0,2013-11-03 04:15:00
11:35 PM,44.8,42.4,91,30.24,10.0,Calm,Calm,-,N/A,,Clear,0,2013-11-03 04:35:00
11:55 PM,45.5,43.3,92,30.24,10.0,Calm,Calm,-,N/A,,Clear,0,2013-11-03 04:55:00